createdAt,value
2022-11-03T00:00:12.938Z,7.69
2022-11-03T00:01:11.822Z,7.77
2022-11-03T00:02:11.890Z,7.75
2022-11-03T00:03:11.768Z,7.79
2022-11-03T00:04:11.759Z,7.69
2022-11-03T00:05:11.784Z,7.77
2022-11-03T00:06:11.838Z,7.77
2022-11-03T00:07:11.750Z,7.77
2022-11-03T00:09:11.756Z,7.75
2022-11-03T00:10:12.590Z,7.80
2022-11-03T00:11:11.744Z,7.79
2022-11-03T00:12:11.754Z,7.75
2022-11-03T00:13:11.762Z,7.74
2022-11-03T00:14:11.768Z,7.82
2022-11-03T00:15:11.739Z,7.74
2022-11-03T00:16:11.737Z,7.80
2022-11-03T00:17:12.684Z,7.74
2022-11-03T00:18:11.746Z,7.77
2022-11-03T00:19:11.749Z,7.74
2022-11-03T00:20:11.737Z,7.71
2022-11-03T00:21:11.739Z,7.68
2022-11-03T00:22:11.719Z,7.64
2022-11-03T00:23:11.844Z,7.71
2022-11-03T00:24:11.866Z,7.69
2022-11-03T00:25:11.764Z,7.75
2022-11-03T00:26:11.702Z,7.64
2022-11-03T00:27:11.723Z,7.64
2022-11-03T00:28:11.738Z,7.69
2022-11-03T00:29:11.745Z,7.75
2022-11-03T00:30:11.716Z,7.71
2022-11-03T00:31:11.696Z,7.67
2022-11-03T00:32:11.714Z,7.72
2022-11-03T00:33:11.702Z,7.71
2022-11-03T00:34:11.701Z,7.63
2022-11-03T00:35:11.745Z,7.69
2022-11-03T00:36:11.724Z,7.71
2022-11-03T00:37:11.752Z,7.71
2022-11-03T00:38:11.738Z,7.63
2022-11-03T00:39:11.689Z,7.60
2022-11-03T00:40:11.695Z,7.71
2022-11-03T00:41:11.677Z,7.74
2022-11-03T00:42:11.680Z,7.68
2022-11-03T00:43:11.692Z,7.69
2022-11-03T00:44:11.678Z,7.71
2022-11-03T00:45:11.699Z,7.67
2022-11-03T00:46:11.672Z,7.72
2022-11-03T00:47:11.785Z,7.80
2022-11-03T00:48:11.722Z,7.77
2022-11-03T00:49:11.669Z,7.67
2022-11-03T00:50:11.659Z,7.71
2022-11-03T00:51:11.686Z,7.82
2022-11-03T00:52:11.656Z,7.82
2022-11-03T00:53:11.672Z,7.75
2022-11-03T00:54:11.709Z,7.77
2022-11-03T00:55:11.660Z,7.75
2022-11-03T00:56:11.669Z,7.69
2022-11-03T00:57:11.664Z,7.64
2022-11-03T00:58:11.694Z,7.68
2022-11-03T00:59:11.689Z,7.69
2022-11-03T01:00:11.737Z,7.72
2022-11-03T01:01:12.705Z,7.75
2022-11-03T01:02:11.834Z,7.71
2022-11-03T01:03:11.660Z,7.64
2022-11-03T01:04:11.630Z,7.72
2022-11-03T01:05:11.651Z,7.64
2022-11-03T01:06:11.630Z,7.69
2022-11-03T01:07:11.662Z,7.64
2022-11-03T01:08:11.610Z,7.69
2022-11-03T01:09:11.655Z,7.72
2022-11-03T01:10:11.617Z,7.68
2022-11-03T01:11:11.605Z,7.71
2022-11-03T01:12:11.616Z,7.68
2022-11-03T01:13:11.621Z,7.69
2022-11-03T01:14:11.607Z,7.68
2022-11-03T01:15:11.614Z,7.71
2022-11-03T01:16:11.591Z,7.74
2022-11-03T01:17:11.690Z,7.74
2022-11-03T01:18:11.603Z,7.72
2022-11-03T01:19:11.606Z,7.67
2022-11-03T01:20:11.591Z,7.68
2022-11-03T01:21:11.597Z,7.74
2022-11-03T01:22:11.604Z,7.64
2022-11-03T01:23:11.572Z,7.64
2022-11-03T01:24:11.666Z,7.63
2022-11-03T01:25:11.597Z,7.63
2022-11-03T01:26:11.577Z,7.55
2022-11-03T01:27:11.604Z,7.61
2022-11-03T01:28:11.588Z,7.60
2022-11-03T01:29:11.576Z,7.52
2022-11-03T01:30:11.592Z,7.60
2022-11-03T01:31:11.591Z,7.64
2022-11-03T01:32:11.593Z,7.63
2022-11-03T01:33:11.557Z,7.53
2022-11-03T01:34:11.557Z,7.52
2022-11-03T01:35:11.548Z,7.49
2022-11-03T01:36:11.562Z,7.45
2022-11-03T01:37:11.556Z,7.50
2022-11-03T01:38:11.549Z,7.46
2022-11-03T01:39:11.555Z,7.52
2022-11-03T01:40:11.549Z,7.46
2022-11-03T01:41:11.611Z,7.45
2022-11-03T01:42:11.563Z,7.50
2022-11-03T01:43:11.585Z,7.58
2022-11-03T01:44:11.537Z,7.55
2022-11-03T01:45:11.532Z,7.57
2022-11-03T01:46:11.724Z,7.60
2022-11-03T01:47:11.530Z,7.60
2022-11-03T01:48:19.088Z,7.67
2022-11-03T01:49:11.513Z,7.68
2022-11-03T01:50:11.528Z,7.64
2022-11-03T01:51:11.508Z,7.67
2022-11-03T01:52:11.513Z,7.64
2022-11-03T01:53:11.532Z,7.60
2022-11-03T01:54:11.524Z,7.63
2022-11-03T01:55:11.512Z,7.68
2022-11-03T01:56:11.507Z,7.63
2022-11-03T01:57:11.499Z,7.64
2022-11-03T01:58:11.511Z,7.50
2022-11-03T01:59:11.509Z,7.46
2022-11-03T02:00:11.491Z,7.52
2022-11-03T02:01:11.549Z,7.43
2022-11-03T02:02:11.733Z,7.46
2022-11-03T02:03:11.488Z,7.40
2022-11-03T02:04:11.470Z,7.45
2022-11-03T02:05:11.474Z,7.37
2022-11-03T02:06:11.475Z,7.45
2022-11-03T02:07:11.483Z,7.35
2022-11-03T02:08:11.512Z,7.42
2022-11-03T02:09:11.465Z,7.32
2022-11-03T02:10:11.504Z,7.31
2022-11-03T02:11:11.471Z,7.24
2022-11-03T02:12:11.451Z,7.24
2022-11-03T02:13:11.451Z,7.25
2022-11-03T02:14:11.476Z,7.31
2022-11-03T02:15:11.450Z,7.27
2022-11-03T02:16:11.456Z,7.30
2022-11-03T02:17:11.443Z,7.30
2022-11-03T02:18:11.438Z,7.27
2022-11-03T02:19:11.452Z,7.34
2022-11-03T02:20:11.463Z,7.32
2022-11-03T02:21:11.444Z,7.25
2022-11-03T02:22:11.427Z,7.40
2022-11-03T02:23:11.427Z,7.24
2022-11-03T02:24:11.423Z,7.34
2022-11-03T02:25:11.448Z,7.28
2022-11-03T02:26:11.421Z,7.27
2022-11-03T02:27:11.431Z,7.27
2022-11-03T02:28:11.423Z,7.23
2022-11-03T02:29:11.416Z,7.31
2022-11-03T02:30:11.417Z,7.25
2022-11-03T02:31:11.428Z,7.27
2022-11-03T02:32:11.408Z,7.25
2022-11-03T02:33:11.423Z,7.24
2022-11-03T02:34:11.429Z,7.12
2022-11-03T02:35:11.411Z,7.10
2022-11-03T02:36:11.403Z,6.99
2022-11-03T02:37:11.407Z,7.02
2022-11-03T02:38:11.414Z,6.97
2022-11-03T02:39:11.393Z,6.94
2022-11-03T02:40:11.420Z,6.89
2022-11-03T02:41:11.384Z,6.80
2022-11-03T02:42:11.401Z,6.85
2022-11-03T02:43:11.384Z,6.81
2022-11-03T02:44:11.376Z,6.77
2022-11-03T02:45:14.762Z,6.79
2022-11-03T02:46:11.379Z,6.84
2022-11-03T02:47:11.388Z,6.81
2022-11-03T02:48:11.365Z,6.77
2022-11-03T02:49:11.358Z,6.77
2022-11-03T02:50:11.384Z,6.69
2022-11-03T02:51:11.354Z,6.71
2022-11-03T02:52:11.358Z,6.76
2022-11-03T02:53:11.364Z,6.70
2022-11-03T02:54:11.364Z,6.70
2022-11-03T02:55:11.355Z,6.66
2022-11-03T02:56:11.379Z,6.67
2022-11-03T02:57:11.356Z,6.70
2022-11-03T02:58:11.340Z,6.62
2022-11-03T02:59:11.336Z,6.66
2022-11-03T03:00:11.330Z,6.66
2022-11-03T03:01:11.475Z,6.64
2022-11-03T03:02:11.487Z,6.66
2022-11-03T03:03:11.326Z,6.71
2022-11-03T03:04:11.333Z,6.71
2022-11-03T03:05:11.332Z,6.71
2022-11-03T03:06:11.335Z,6.77
2022-11-03T03:07:11.312Z,6.81
2022-11-03T03:08:11.351Z,6.79
2022-11-03T03:09:11.317Z,6.74
2022-11-03T03:10:11.306Z,6.84
2022-11-03T03:11:11.302Z,6.81
2022-11-03T03:12:11.302Z,6.76
2022-11-03T03:13:11.311Z,6.76
2022-11-03T03:14:11.321Z,6.81
2022-11-03T03:15:11.302Z,6.79
2022-11-03T03:16:11.304Z,6.80
2022-11-03T03:17:11.296Z,6.76
2022-11-03T03:18:11.291Z,6.79
2022-11-03T03:19:11.301Z,6.79
2022-11-03T03:20:11.294Z,6.73
2022-11-03T03:21:11.273Z,6.69
2022-11-03T03:22:11.304Z,6.70
2022-11-03T03:23:11.773Z,6.62
2022-11-03T03:24:11.273Z,6.66
2022-11-03T03:25:11.303Z,6.59
2022-11-03T03:26:11.300Z,6.64
2022-11-03T03:27:11.271Z,6.69
2022-11-03T03:28:11.270Z,6.67
2022-11-03T03:29:11.273Z,6.70
2022-11-03T03:30:11.258Z,6.69
2022-11-03T03:31:11.259Z,6.61
2022-11-03T03:32:11.266Z,6.64
2022-11-03T03:33:11.293Z,6.67
2022-11-03T03:34:31.397Z,6.67
2022-11-03T03:35:11.248Z,6.67
2022-11-03T03:36:11.243Z,6.79
2022-11-03T03:37:11.264Z,6.73
2022-11-03T03:38:11.249Z,6.76
2022-11-03T03:39:11.233Z,6.74
2022-11-03T03:40:11.242Z,6.74
2022-11-03T03:41:11.229Z,6.80
2022-11-03T03:42:11.233Z,6.85
2022-11-03T03:43:11.243Z,6.87
2022-11-03T03:44:11.225Z,6.91
2022-11-03T03:45:11.226Z,6.88
2022-11-03T03:46:11.229Z,6.85
2022-11-03T03:47:11.223Z,6.80
2022-11-03T03:48:11.414Z,6.79
2022-11-03T03:49:11.211Z,6.76
2022-11-03T03:50:11.204Z,6.77
2022-11-03T03:51:11.209Z,6.76
2022-11-03T03:52:11.222Z,6.84
2022-11-03T03:53:11.195Z,6.79
2022-11-03T03:54:11.235Z,6.77
2022-11-03T03:55:11.233Z,6.74
2022-11-03T03:56:11.205Z,6.77
2022-11-03T03:57:11.195Z,6.87
2022-11-03T03:58:11.182Z,6.77
2022-11-03T03:59:11.187Z,6.73
2022-11-03T04:00:11.189Z,6.77
2022-11-03T04:01:11.293Z,6.89
2022-11-03T04:02:11.328Z,6.87
2022-11-03T04:03:11.170Z,6.88
2022-11-03T04:04:11.192Z,6.88
2022-11-03T04:05:11.167Z,6.88
2022-11-03T04:06:11.179Z,6.84
2022-11-03T04:07:11.164Z,6.88
2022-11-03T04:08:11.158Z,6.89
2022-11-03T04:09:11.162Z,6.88
2022-11-03T04:10:11.164Z,6.81
2022-11-03T04:11:11.169Z,6.94
2022-11-03T04:12:11.154Z,6.79
2022-11-03T04:13:11.156Z,6.74
2022-11-03T04:14:11.148Z,6.74
2022-11-03T04:15:11.175Z,6.84
2022-11-03T04:16:11.146Z,6.87
2022-11-03T04:17:11.156Z,6.77
2022-11-03T04:18:11.129Z,6.80
2022-11-03T04:19:11.125Z,6.81
2022-11-03T04:20:11.128Z,6.87
2022-11-03T04:21:11.145Z,6.88
2022-11-03T04:22:11.135Z,6.89
2022-11-03T04:23:11.125Z,6.95
2022-11-03T04:24:11.116Z,6.97
2022-11-03T04:25:11.115Z,6.97
2022-11-03T04:26:11.112Z,6.92
2022-11-03T04:27:11.116Z,6.97
2022-11-03T04:28:11.120Z,6.95
2022-11-03T04:29:11.120Z,6.92
2022-11-03T04:30:11.123Z,6.94
2022-11-03T04:31:11.095Z,6.88
2022-11-03T04:32:11.117Z,6.95
2022-11-03T04:33:11.108Z,6.98
2022-11-03T04:34:11.126Z,6.92
2022-11-03T04:35:11.095Z,6.92
2022-11-03T04:36:11.093Z,6.98
2022-11-03T04:37:11.116Z,6.97
2022-11-03T04:38:11.080Z,6.97
2022-11-03T04:39:11.089Z,6.95
2022-11-03T04:40:11.083Z,6.97
2022-11-03T04:41:11.088Z,6.94
2022-11-03T04:42:11.083Z,6.98
2022-11-03T04:43:11.085Z,6.98
2022-11-03T04:44:11.098Z,6.98
2022-11-03T04:45:11.066Z,7.02
2022-11-03T04:46:11.070Z,6.97
2022-11-03T04:47:11.068Z,6.97
2022-11-03T04:48:11.060Z,6.99
2022-11-03T04:49:11.052Z,7.07
2022-11-03T04:50:11.059Z,6.97
2022-11-03T04:51:11.050Z,7.03
2022-11-03T04:52:11.056Z,7.03
2022-11-03T04:53:11.060Z,7.06
2022-11-03T04:54:11.092Z,6.99
2022-11-03T04:55:11.037Z,7.03
2022-11-03T04:56:11.043Z,7.06
2022-11-03T04:57:11.070Z,7.15
2022-11-03T04:58:11.037Z,6.98
2022-11-03T04:59:11.068Z,7.13
2022-11-03T05:00:11.049Z,7.07
2022-11-03T05:01:11.223Z,7.02
2022-11-03T05:02:11.077Z,6.99
2022-11-03T05:03:11.263Z,6.99
2022-11-03T05:04:11.015Z,7.15
2022-11-03T05:05:11.024Z,6.97
2022-11-03T05:06:11.024Z,7.09
2022-11-03T05:07:11.026Z,7.15
2022-11-03T05:08:11.013Z,6.98
2022-11-03T05:09:11.019Z,7.05
2022-11-03T05:10:11.009Z,7.06
2022-11-03T05:11:11.042Z,7.03
2022-11-03T05:12:11.007Z,7.03
2022-11-03T05:13:11.008Z,6.94
2022-11-03T05:14:11.017Z,7.07
2022-11-03T05:15:11.024Z,7.02
2022-11-03T05:16:10.993Z,7.07
2022-11-03T05:17:10.995Z,6.99
2022-11-03T05:18:10.988Z,7.03
2022-11-03T05:19:10.978Z,7.02
2022-11-03T05:20:11.063Z,6.97
2022-11-03T05:21:11.003Z,6.97
2022-11-03T05:22:10.976Z,7.02
2022-11-03T05:23:10.979Z,6.97
2022-11-03T05:24:11.016Z,6.97
2022-11-03T05:25:10.981Z,6.95
2022-11-03T05:26:10.968Z,7.02
2022-11-03T05:27:10.977Z,6.97
2022-11-03T05:28:10.961Z,6.99
2022-11-03T05:29:10.957Z,6.95
2022-11-03T05:30:10.953Z,6.85
2022-11-03T05:31:10.973Z,6.84
2022-11-03T05:32:10.955Z,6.94
2022-11-03T05:33:10.943Z,6.85
2022-11-03T05:34:10.953Z,6.84
2022-11-03T05:35:10.945Z,6.88
2022-11-03T05:36:10.957Z,6.84
2022-11-03T05:37:10.950Z,6.84
2022-11-03T05:38:10.945Z,6.79
2022-11-03T05:39:10.939Z,6.79
2022-11-03T05:40:10.942Z,6.80
2022-11-03T05:41:10.925Z,6.80
2022-11-03T05:42:10.936Z,6.81
2022-11-03T05:43:12.356Z,6.74
2022-11-03T05:44:10.926Z,6.76
2022-11-03T05:45:10.917Z,6.79
2022-11-03T05:46:10.927Z,6.85
2022-11-03T05:47:10.938Z,6.81
2022-11-03T05:48:10.934Z,6.80
2022-11-03T05:49:10.903Z,6.80
2022-11-03T05:50:10.912Z,6.81
2022-11-03T05:51:10.905Z,6.71
2022-11-03T05:52:10.899Z,6.74
2022-11-03T05:53:10.911Z,6.80
2022-11-03T05:54:14.305Z,6.76
2022-11-03T05:55:10.900Z,6.70
2022-11-03T05:56:10.910Z,6.66
2022-11-03T05:57:10.905Z,6.76
2022-11-03T05:58:10.879Z,6.66
2022-11-03T05:59:10.912Z,6.69
2022-11-03T06:00:10.875Z,6.66
2022-11-03T06:01:10.902Z,6.67
2022-11-03T06:02:10.956Z,6.64
2022-11-03T06:03:10.865Z,6.69
2022-11-03T06:04:10.888Z,6.61
2022-11-03T06:05:10.899Z,6.73
2022-11-03T06:06:10.864Z,6.73
2022-11-03T06:07:10.866Z,6.70
2022-11-03T06:08:10.942Z,6.59
2022-11-03T06:09:10.860Z,6.66
2022-11-03T06:10:10.869Z,6.66
2022-11-03T06:11:10.844Z,6.67
2022-11-03T06:12:10.837Z,6.67
2022-11-03T06:13:10.848Z,6.71
2022-11-03T06:14:10.886Z,6.69
2022-11-03T06:15:10.835Z,6.69
2022-11-03T06:16:10.841Z,6.66
2022-11-03T06:17:10.839Z,6.62
2022-11-03T06:18:10.828Z,6.61
2022-11-03T06:19:10.845Z,6.62
2022-11-03T06:20:11.309Z,6.67
2022-11-03T06:21:10.821Z,6.64
2022-11-03T06:22:10.815Z,6.64
2022-11-03T06:23:10.819Z,6.76
2022-11-03T06:24:10.825Z,6.74
2022-11-03T06:25:10.834Z,6.74
2022-11-03T06:26:10.848Z,6.79
2022-11-03T06:27:10.810Z,6.79
2022-11-03T06:28:10.816Z,6.84
2022-11-03T06:29:10.807Z,6.85
2022-11-03T06:30:10.792Z,6.79
2022-11-03T06:31:10.793Z,6.76
2022-11-03T06:32:10.895Z,6.76
2022-11-03T06:33:10.802Z,6.81
2022-11-03T06:34:10.788Z,6.87
2022-11-03T06:35:10.799Z,6.80
2022-11-03T06:36:10.803Z,6.79
2022-11-03T06:37:13.482Z,6.76
2022-11-03T06:38:10.795Z,6.79
2022-11-03T06:39:10.785Z,6.71
2022-11-03T06:40:10.761Z,6.79
2022-11-03T06:41:10.757Z,6.84
2022-11-03T06:42:10.775Z,6.87
2022-11-03T06:43:10.783Z,6.79
2022-11-03T06:44:10.787Z,6.79
2022-11-03T06:45:10.769Z,6.80
2022-11-03T06:46:10.778Z,6.77
2022-11-03T06:47:10.748Z,6.79
2022-11-03T06:48:10.765Z,6.85
2022-11-03T06:49:10.770Z,6.92
2022-11-03T06:50:10.773Z,6.89
2022-11-03T06:51:10.744Z,6.87
2022-11-03T06:52:10.746Z,6.95
2022-11-03T06:53:10.750Z,6.95
2022-11-03T06:54:10.746Z,7.02
2022-11-03T06:55:13.817Z,6.99
2022-11-03T06:56:10.749Z,7.07
2022-11-03T06:57:10.721Z,6.95
2022-11-03T06:58:10.735Z,6.97
2022-11-03T06:59:10.721Z,7.17
2022-11-03T07:00:33.048Z,7.12
2022-11-03T07:01:10.927Z,7.28
2022-11-03T07:02:10.834Z,7.25
2022-11-03T07:03:10.708Z,7.34
2022-11-03T07:04:10.731Z,7.40
2022-11-03T07:05:10.707Z,7.39
2022-11-03T07:06:10.713Z,7.37
2022-11-03T07:07:10.716Z,7.35
2022-11-03T07:08:10.719Z,7.31
2022-11-03T07:09:10.714Z,7.30
2022-11-03T07:10:10.709Z,7.35
2022-11-03T07:11:10.714Z,7.27
2022-11-03T07:12:10.692Z,7.25
2022-11-03T07:13:10.916Z,7.39
2022-11-03T07:14:10.689Z,7.32
2022-11-03T07:15:10.690Z,7.34
2022-11-03T07:16:13.476Z,7.45
2022-11-03T07:17:10.673Z,7.63
2022-11-03T07:18:10.683Z,7.69
2022-11-03T07:19:10.682Z,7.80
2022-11-03T07:20:10.672Z,8.04
2022-11-03T07:21:10.680Z,8.25
2022-11-03T07:22:10.698Z,8.43
2022-11-03T07:23:10.663Z,8.53
2022-11-03T07:24:10.695Z,8.76
2022-11-03T07:25:10.676Z,8.87
2022-11-03T07:26:10.657Z,9.13
2022-11-03T07:27:10.669Z,9.23
2022-11-03T07:28:10.657Z,9.42
2022-11-03T07:29:10.651Z,9.57
2022-11-03T07:30:10.639Z,9.79
2022-11-03T07:31:15.989Z,9.90
2022-11-03T07:32:10.631Z,9.99
2022-11-03T07:33:10.666Z,10.05
2022-11-03T07:34:10.788Z,10.22
2022-11-03T07:35:10.640Z,10.33
2022-11-03T07:36:15.941Z,10.52
2022-11-03T07:38:10.625Z,10.78
2022-11-03T07:39:10.634Z,10.92
2022-11-03T07:40:10.646Z,11.02
2022-11-03T07:41:10.669Z,11.10
2022-11-03T07:42:10.647Z,11.15
2022-11-03T07:43:10.628Z,11.19
2022-11-03T07:44:10.638Z,11.22
2022-11-03T07:45:10.615Z,11.32
2022-11-03T07:46:10.615Z,11.44
2022-11-03T07:47:10.634Z,11.62
2022-11-03T07:48:18.308Z,11.67
2022-11-03T07:49:10.627Z,11.64
2022-11-03T07:50:10.622Z,11.72
2022-11-03T07:51:10.629Z,11.79
2022-11-03T07:52:10.597Z,11.75
2022-11-03T07:53:10.614Z,11.86
2022-11-03T07:54:10.594Z,11.85
2022-11-03T07:55:10.631Z,11.72
2022-11-03T07:56:10.664Z,11.67
2022-11-03T07:57:10.588Z,11.57
2022-11-03T07:58:10.610Z,11.51
2022-11-03T07:59:10.623Z,11.46
2022-11-03T08:00:10.969Z,11.62
2022-11-03T08:01:10.727Z,11.52
2022-11-03T08:02:10.687Z,11.57
2022-11-03T08:03:10.589Z,11.52
2022-11-03T08:04:10.579Z,11.54
2022-11-03T08:05:10.679Z,11.55
2022-11-03T08:06:11.743Z,11.60
2022-11-03T08:07:10.586Z,11.67
2022-11-03T08:08:10.582Z,11.72
2022-11-03T08:09:10.616Z,11.86
2022-11-03T08:10:10.592Z,11.95
2022-11-03T08:11:10.601Z,11.90
2022-11-03T08:12:10.612Z,12.01
2022-11-03T08:13:10.569Z,12.07
2022-11-03T08:14:10.574Z,12.14
2022-11-03T08:15:10.563Z,12.10
2022-11-03T08:16:10.565Z,12.17
2022-11-03T08:17:10.581Z,11.99
2022-11-03T08:18:10.585Z,12.07
2022-11-03T08:19:10.567Z,12.12
2022-11-03T08:20:10.564Z,12.04
2022-11-03T08:21:10.591Z,12.04
2022-11-03T08:22:10.560Z,11.91
2022-11-03T08:23:26.619Z,11.96
2022-11-03T08:24:10.561Z,11.82
2022-11-03T08:25:10.572Z,11.85
2022-11-03T08:26:10.568Z,11.83
2022-11-03T08:27:10.568Z,11.85
2022-11-03T08:28:10.576Z,11.78
2022-11-03T08:29:10.555Z,11.82
2022-11-03T08:30:10.561Z,11.91
2022-11-03T08:31:12.968Z,11.99
2022-11-03T08:32:10.565Z,11.91
2022-11-03T08:33:10.565Z,11.94
2022-11-03T08:34:10.601Z,11.91
2022-11-03T08:35:10.547Z,11.99
2022-11-03T08:36:10.566Z,11.88
2022-11-03T08:37:10.550Z,11.82
2022-11-03T08:38:10.632Z,11.75
2022-11-03T08:39:10.574Z,11.75
2022-11-03T08:40:10.545Z,11.69
2022-11-03T08:41:10.552Z,11.65
2022-11-03T08:42:10.553Z,11.65
2022-11-03T08:43:10.558Z,11.64
2022-11-03T08:44:10.545Z,11.69
2022-11-03T08:45:10.552Z,11.72
2022-11-03T08:46:17.186Z,11.69
2022-11-03T08:47:10.545Z,11.69
2022-11-03T08:48:10.564Z,11.69
2022-11-03T08:49:10.535Z,11.80
2022-11-03T08:50:10.542Z,11.73
2022-11-03T08:51:10.575Z,11.76
2022-11-03T08:52:10.537Z,11.72
2022-11-03T08:53:10.551Z,11.73
2022-11-03T08:54:10.561Z,11.78
2022-11-03T08:55:10.530Z,11.73
2022-11-03T08:56:12.814Z,11.73
2022-11-03T08:57:10.570Z,11.80
2022-11-03T08:58:10.628Z,11.85
2022-11-03T08:59:10.546Z,11.90
2022-11-03T09:00:10.542Z,11.88
2022-11-03T09:01:10.558Z,12.04
2022-11-03T09:02:10.542Z,12.02
2022-11-03T09:03:10.659Z,11.99
2022-11-03T09:04:10.566Z,12.05
2022-11-03T09:05:10.533Z,12.01
2022-11-03T09:06:10.527Z,12.04
2022-11-03T09:07:10.531Z,11.96
2022-11-03T09:11:10.525Z,11.86
2022-11-03T09:12:10.537Z,11.86
2022-11-03T09:13:10.539Z,11.88
2022-11-03T09:14:10.543Z,12.02
2022-11-03T09:15:10.523Z,11.98
2022-11-03T09:16:10.526Z,12.01
2022-11-03T09:17:10.529Z,11.98
2022-11-03T09:18:10.870Z,12.05
2022-11-03T09:19:10.518Z,12.13
2022-11-03T09:20:10.528Z,12.17
2022-11-03T09:21:10.518Z,12.23
2022-11-03T09:22:10.512Z,12.24
2022-11-03T09:23:10.519Z,12.31
2022-11-03T09:24:10.503Z,12.41
2022-11-03T09:25:10.532Z,12.45
2022-11-03T09:26:10.603Z,12.59
2022-11-03T09:27:10.517Z,12.62
2022-11-03T09:28:10.857Z,12.72
2022-11-03T09:29:10.498Z,12.89
2022-11-03T09:30:15.829Z,12.87
2022-11-03T09:31:10.505Z,12.93
2022-11-03T09:32:10.494Z,12.92
2022-11-03T09:33:10.498Z,13.04
2022-11-03T09:34:10.499Z,13.05
2022-11-03T09:35:10.498Z,13.04
2022-11-03T09:36:10.506Z,13.10
2022-11-03T09:37:10.505Z,13.10
2022-11-03T09:38:10.669Z,13.07
2022-11-03T09:39:10.506Z,13.04
2022-11-03T09:40:10.503Z,13.04
2022-11-03T09:41:24.826Z,13.11
2022-11-03T09:42:10.524Z,13.00
2022-11-03T09:43:10.830Z,13.12
2022-11-03T09:44:10.491Z,13.25
2022-11-03T09:45:10.491Z,13.25
2022-11-03T09:46:10.487Z,13.38
2022-11-03T09:47:10.504Z,13.36
2022-11-03T09:48:10.758Z,13.51
2022-11-03T09:49:10.508Z,13.64
2022-11-03T09:50:10.501Z,13.63
2022-11-03T09:51:10.495Z,13.70
2022-11-03T09:52:10.484Z,13.63
2022-11-03T09:53:10.533Z,13.62
2022-11-03T09:54:10.501Z,13.55
2022-11-03T09:55:10.500Z,13.62
2022-11-03T09:56:10.507Z,13.66
2022-11-03T09:57:10.498Z,13.64
2022-11-03T09:58:10.484Z,13.79
2022-11-03T09:59:10.498Z,13.78
2022-11-03T10:00:10.521Z,13.84
2022-11-03T10:01:10.551Z,13.88
2022-11-03T10:02:10.586Z,14.02
2022-11-03T10:03:10.793Z,14.06
2022-11-03T10:04:10.486Z,14.18
2022-11-03T10:05:11.314Z,14.20
2022-11-03T10:06:14.335Z,14.28
2022-11-03T10:07:10.494Z,14.35
2022-11-03T10:08:10.496Z,14.32
2022-11-03T10:09:10.495Z,14.50
2022-11-03T10:10:10.478Z,14.62
2022-11-03T10:11:10.488Z,14.60
2022-11-03T10:12:10.507Z,14.78
2022-11-03T10:13:10.496Z,14.72
2022-11-03T10:14:10.497Z,14.78
2022-11-03T10:15:10.498Z,14.84
2022-11-03T10:16:10.496Z,14.94
2022-11-03T10:17:10.499Z,14.89
2022-11-03T10:18:10.498Z,14.81
2022-11-03T10:19:10.526Z,14.75
2022-11-03T10:20:10.507Z,14.77
2022-11-03T10:21:10.492Z,14.73
2022-11-03T10:22:10.501Z,14.73
2022-11-03T10:23:10.501Z,14.72
2022-11-03T10:24:10.501Z,14.73
2022-11-03T10:25:10.519Z,14.72
2022-11-03T10:26:10.516Z,14.69
2022-11-03T10:27:10.496Z,14.58
2022-11-03T10:28:14.349Z,14.58
2022-11-03T10:29:10.549Z,14.50
2022-11-03T10:30:10.502Z,14.55
2022-11-03T10:31:12.223Z,14.35
2022-11-03T10:32:10.509Z,14.28
2022-11-03T10:33:10.506Z,14.36
2022-11-03T10:34:10.499Z,14.32
2022-11-03T10:35:10.511Z,14.29
2022-11-03T10:36:10.522Z,14.33
2022-11-03T10:37:10.513Z,14.32
2022-11-03T10:38:10.514Z,14.25
2022-11-03T10:39:10.509Z,14.29
2022-11-03T10:40:22.409Z,14.21
2022-11-03T10:41:10.512Z,14.12
2022-11-03T10:42:10.521Z,13.99
2022-11-03T10:43:10.512Z,14.03
2022-11-03T10:44:10.515Z,14.03
2022-11-03T10:45:10.518Z,14.15
2022-11-03T10:46:23.471Z,14.18
2022-11-03T10:47:10.517Z,14.02
2022-11-03T10:48:10.512Z,14.03
2022-11-03T10:49:10.507Z,14.09
2022-11-03T10:50:10.505Z,14.04
2022-11-03T10:51:10.513Z,14.03
2022-11-03T10:52:10.536Z,14.06
2022-11-03T10:53:10.845Z,14.03
2022-11-03T10:54:10.520Z,14.09
2022-11-03T10:55:10.524Z,14.02
2022-11-03T10:56:10.504Z,14.03
2022-11-03T10:57:10.512Z,13.99
2022-11-03T10:58:10.752Z,13.97
2022-11-03T10:59:10.507Z,13.92
2022-11-03T11:00:10.506Z,13.96
2022-11-03T11:01:10.552Z,13.87
2022-11-03T11:02:10.661Z,13.92
2022-11-03T11:03:14.961Z,13.89
2022-11-03T11:04:10.548Z,13.85
2022-11-03T11:05:10.512Z,13.95
2022-11-03T11:06:10.509Z,13.91
2022-11-03T11:07:10.500Z,13.91
2022-11-03T11:08:10.542Z,13.89
2022-11-03T11:09:10.534Z,13.88
2022-11-03T11:10:10.498Z,13.84
2022-11-03T11:11:10.497Z,13.92
2022-11-03T11:12:10.509Z,13.87
2022-11-03T11:13:10.637Z,13.91
2022-11-03T11:14:10.496Z,13.84
2022-11-03T11:15:10.506Z,13.78
2022-11-03T11:16:10.529Z,13.84
2022-11-03T11:17:10.507Z,13.75
2022-11-03T11:18:10.566Z,13.73
2022-11-03T11:19:10.492Z,13.67
2022-11-03T11:20:10.491Z,13.64
2022-11-03T11:21:10.526Z,13.62
2022-11-03T11:22:10.499Z,13.62
2022-11-03T11:23:10.817Z,13.63
2022-11-03T11:24:10.489Z,13.71
2022-11-03T11:25:10.496Z,13.67
2022-11-03T11:26:10.778Z,13.62
2022-11-03T11:27:10.502Z,13.62
2022-11-03T11:28:10.510Z,13.62
2022-11-03T11:29:10.502Z,13.66
2022-11-03T11:30:10.496Z,13.66
2022-11-03T11:31:10.501Z,13.62
2022-11-03T11:32:10.486Z,13.69
2022-11-03T11:33:10.510Z,13.67
2022-11-03T11:34:10.486Z,13.64
2022-11-03T11:35:10.498Z,13.66
2022-11-03T11:36:10.502Z,13.62
2022-11-03T11:37:10.494Z,13.59
2022-11-03T11:38:10.505Z,13.64
2022-11-03T11:39:10.495Z,13.49
2022-11-03T11:40:10.485Z,13.54
2022-11-03T11:41:10.493Z,13.57
2022-11-03T11:42:10.591Z,13.51
2022-11-03T11:43:10.879Z,13.62
2022-11-03T11:44:10.494Z,13.60
2022-11-03T11:45:10.501Z,13.57
2022-11-03T11:46:10.504Z,13.64
2022-11-03T11:47:10.490Z,13.64
2022-11-03T11:48:13.529Z,13.66
2022-11-03T11:49:10.487Z,13.59
2022-11-03T11:50:10.487Z,13.54
2022-11-03T11:51:10.475Z,13.54
2022-11-03T11:52:15.274Z,13.48
2022-11-03T11:53:10.780Z,13.48
2022-11-03T11:54:18.477Z,13.44
2022-11-03T11:55:10.531Z,13.54
2022-11-03T11:56:10.488Z,13.51
2022-11-03T11:57:10.477Z,13.49
2022-11-03T11:58:10.468Z,13.57
2022-11-03T11:59:10.477Z,13.52
2022-11-03T12:00:10.503Z,13.57
2022-11-03T12:01:10.504Z,13.48
2022-11-03T12:02:10.469Z,13.48
2022-11-03T12:03:10.945Z,13.54
2022-11-03T12:04:10.573Z,13.48
2022-11-03T12:05:10.485Z,13.52
2022-11-03T12:06:10.466Z,13.49
2022-11-03T12:07:10.501Z,13.45
2022-11-03T12:08:10.469Z,13.49
2022-11-03T12:09:10.477Z,13.52
2022-11-03T12:10:10.463Z,13.54
2022-11-03T12:11:10.497Z,13.55
2022-11-03T12:12:10.485Z,13.59
2022-11-03T12:13:10.512Z,13.60
2022-11-03T12:14:10.470Z,13.59
2022-11-03T12:15:10.469Z,13.59
2022-11-03T12:16:10.475Z,13.63
2022-11-03T12:17:10.457Z,13.64
2022-11-03T12:18:10.464Z,13.62
2022-11-03T12:19:10.482Z,13.69
2022-11-03T12:20:10.478Z,13.62
2022-11-03T12:21:10.456Z,13.67
2022-11-03T12:22:10.488Z,13.70
2022-11-03T12:23:10.474Z,13.66
2022-11-03T12:24:10.473Z,13.69
2022-11-03T12:25:10.455Z,13.67
2022-11-03T12:26:10.464Z,13.75
2022-11-03T12:27:10.460Z,13.66
2022-11-03T12:28:10.657Z,13.67
2022-11-03T12:29:10.449Z,13.62
2022-11-03T12:30:10.508Z,13.62
2022-11-03T12:31:10.448Z,13.64
2022-11-03T12:32:25.676Z,13.70
2022-11-03T12:33:10.840Z,13.62
2022-11-03T12:34:10.449Z,13.70
2022-11-03T12:35:10.471Z,13.70
2022-11-03T12:36:10.446Z,13.67
2022-11-03T12:37:10.455Z,13.66
2022-11-03T12:38:10.436Z,13.67
2022-11-03T12:39:10.447Z,13.66
2022-11-03T12:40:10.555Z,13.67
2022-11-03T12:41:10.449Z,13.63
2022-11-03T12:42:10.456Z,13.62
2022-11-03T12:43:10.540Z,13.63
2022-11-03T12:44:10.474Z,13.66
2022-11-03T12:45:10.448Z,13.60
2022-11-03T12:46:10.465Z,13.69
2022-11-03T12:47:10.449Z,13.64
2022-11-03T12:48:10.435Z,13.64
2022-11-03T12:49:10.446Z,13.66
2022-11-03T12:50:10.479Z,13.60
2022-11-03T12:51:10.460Z,13.62
2022-11-03T12:52:10.434Z,13.69
2022-11-03T12:53:10.604Z,13.70
2022-11-03T12:54:10.432Z,13.67
2022-11-03T12:55:10.475Z,13.66
2022-11-03T12:56:10.442Z,13.66
2022-11-03T12:57:10.440Z,13.71
2022-11-03T12:58:10.540Z,13.67
2022-11-03T12:59:10.435Z,13.69
2022-11-03T13:00:10.468Z,13.67
2022-11-03T13:01:10.489Z,13.64
2022-11-03T13:02:10.698Z,13.67
2022-11-03T13:03:10.625Z,13.75
2022-11-03T13:04:10.425Z,13.70
2022-11-03T13:05:10.436Z,13.71
2022-11-03T13:06:10.444Z,13.69
2022-11-03T13:07:10.436Z,13.75
2022-11-03T13:08:10.441Z,13.78
2022-11-03T13:09:10.435Z,13.85
2022-11-03T13:10:10.426Z,13.79
2022-11-03T13:11:10.433Z,13.87
2022-11-03T13:12:10.433Z,13.87